Time;durP1;ratioP1;P1;durP2;ratioP2;P2;SDS_P1;SDS_P2;PMS_P1;PMS_P2;Temp;Humidity;BMP_temperature;BMP_pressure;BME280_temperature;BME280_humidity;BME280_pressure;Samples;Min_cycle;Max_cycle;Signal;HPM_P1;HPM_P2
2022/04/11 00:02:00;;;;;;;0.10;0.10;;;9.30;99.90;;;;;;5073495;28;20078;-74
2022/04/11 00:04:26;;;;;;;0.00;0.00;;;9.30;99.90;;;;;;5093097;28;20051;-74
2022/04/11 00:06:52;;;;;;;0.15;0.08;;;9.40;99.90;;;;;;5093407;28;20012;-74
2022/04/11 00:09:18;;;;;;;0.00;0.00;;;9.40;99.90;;;;;;5093504;28;20021;-74
2022/04/11 00:11:44;;;;;;;0.00;0.00;;;9.40;99.90;;;;;;5093238;28;20009;-74
2022/04/11 00:14:09;;;;;;;0.00;0.00;;;9.40;99.90;;;;;;5093276;28;20145;-74
2022/04/11 00:16:35;;;;;;;0.00;0.00;;;9.30;99.90;;;;;;5093337;28;20028;-74
2022/04/11 00:19:01;;;;;;;0.00;0.00;;;9.30;99.90;;;;;;5092702;28;20024;-74
2022/04/11 00:21:27;;;;;;;0.05;0.00;;;9.40;99.90;;;;;;5093537;28;20020;-75
2022/04/11 00:23:52;;;;;;;0.15;0.15;;;9.40;99.90;;;;;;5093269;28;20081;-74
2022/04/11 00:26:18;;;;;;;0.00;0.00;;;9.50;99.90;;;;;;5094533;28;20028;-74
2022/04/11 00:28:44;;;;;;;2.28;1.00;;;9.50;99.90;;;;;;5097232;28;20032;-75
2022/04/11 00:31:09;;;;;;;0.00;0.00;;;9.50;99.90;;;;;;5097778;28;20085;-74
2022/04/11 00:33:35;;;;;;;0.00;0.00;;;9.50;99.90;;;;;;5096563;28;20028;-78
2022/04/11 00:36:01;;;;;;;0.00;0.00;;;9.50;99.90;;;;;;5097116;28;20020;-74
2022/04/11 00:38:26;;;;;;;0.00;0.00;;;9.50;99.90;;;;;;5097852;28;20028;-74
2022/04/11 00:40:52;;;;;;;0.08;0.08;;;9.50;99.90;;;;;;5098883;28;20103;-79
2022/04/11 00:43:38;;;;;;;0.00;0.00;;;9.50;99.90;;;;;;5098861;28;20024;-74
2022/04/11 00:46:05;;;;;;;0.00;0.00;;;9.50;99.90;;;;;;5078153;28;20055;-75
2022/04/11 00:48:30;;;;;;;0.00;0.00;;;9.50;99.90;;;;;;5076735;28;20068;-74
2022/04/11 00:51:09;;;;;;;0.00;0.00;;;9.50;99.90;;;;;;5077596;28;20071;-79
2022/04/11 00:53:38;;;;;;;0.00;0.00;;;9.50;99.90;;;;;;5076364;28;20039;-78
2022/04/11 00:56:07;;;;;;;0.00;0.00;;;9.60;99.90;;;;;;5076727;28;20020;-80
2022/04/11 00:58:35;;;;;;;0.00;0.00;;;9.70;99.90;;;;;;5076483;28;20070;-74
2022/04/11 01:01:01;;;;;;;0.00;0.00;;;9.80;99.90;;;;;;5076568;28;20020;-78
2022/04/11 01:03:26;;;;;;;0.00;0.00;;;9.80;99.90;;;;;;5076230;28;20021;-74
2022/04/11 01:05:52;;;;;;;0.00;0.00;;;9.80;99.90;;;;;;5077453;28;20067;-78
2022/04/11 01:08:18;;;;;;;0.00;0.00;;;9.80;99.90;;;;;;5075856;28;20108;-78
2022/04/11 01:10:44;;;;;;;0.00;0.00;;;9.80;99.90;;;;;;5076129;28;20020;-78
2022/04/11 01:13:09;;;;;;;0.00;0.00;;;9.70;99.90;;;;;;5076913;28;20052;-79
2022/04/11 01:15:35;;;;;;;0.52;0.43;;;9.70;99.90;;;;;;5073359;28;20025;-78
2022/04/11 01:18:00;;;;;;;0.00;0.00;;;9.70;99.90;;;;;;5055877;28;20029;-79
2022/04/11 01:20:26;;;;;;;2.45;0.70;;;9.70;99.90;;;;;;5056262;28;20033;-77
2022/04/11 01:22:52;;;;;;;0.00;0.00;;;9.70;99.90;;;;;;5054849;28;20024;-78
2022/04/11 01:25:19;;;;;;;0.00;0.00;;;9.60;99.90;;;;;;5056297;28;20392;-78
2022/04/11 01:27:44;;;;;;;0.00;0.00;;;9.70;99.90;;;;;;5056820;28;20021;-78
2022/04/11 01:30:12;;;;;;;0.00;0.00;;;9.70;99.90;;;;;;5056094;28;20035;-78
2022/04/11 01:32:39;;;;;;;0.00;0.00;;;9.70;99.90;;;;;;5055997;28;20029;-77
2022/04/11 01:35:16;;;;;;;0.00;0.00;;;9.80;99.90;;;;;;5057018;28;20484;-79
2022/04/11 01:37:42;;;;;;;0.10;0.10;;;9.80;99.90;;;;;;5064786;28;20025;-79
2022/04/11 01:40:08;;;;;;;0.00;0.00;;;9.80;99.90;;;;;;5075468;28;20483;-79
2022/04/11 01:42:37;;;;;;;0.03;0.03;;;9.80;99.90;;;;;;5075122;28;20104;-78
2022/04/11 01:45:03;;;;;;;0.00;0.00;;;9.90;99.90;;;;;;5075744;28;20076;-78
2022/04/11 01:47:29;;;;;;;0.28;0.28;;;9.90;99.90;;;;;;5076086;28;20020;-77
2022/04/11 01:49:54;;;;;;;0.00;0.00;;;9.90;99.90;;;;;;5075674;28;20365;-78
2022/04/11 01:52:20;;;;;;;0.20;0.10;;;10.10;99.90;;;;;;5075943;28;20021;-78
2022/04/11 01:54:46;;;;;;;0.00;0.00;;;10.20;99.90;;;;;;5075691;28;20395;-78
2022/04/11 01:57:11;;;;;;;0.00;0.00;;;10.30;99.90;;;;;;5075671;28;20447;-78
2022/04/11 01:59:37;;;;;;;0.00;0.00;;;10.40;99.90;;;;;;5076470;28;20032;-79
2022/04/11 02:02:03;;;;;;;0.00;0.00;;;10.40;99.90;;;;;;5075307;28;20052;-78
2022/04/11 02:04:31;;;;;;;0.00;0.00;;;10.50;99.90;;;;;;5075154;28;20056;-74
2022/04/11 02:06:57;;;;;;;0.00;0.00;;;10.50;99.90;;;;;;5075603;28;20032;-79
2022/04/11 02:09:22;;;;;;;0.00;0.00;;;10.50;99.90;;;;;;5075358;28;20029;-74
2022/04/11 02:11:48;;;;;;;0.00;0.00;;;10.50;99.90;;;;;;5074964;28;20494;-74
2022/04/11 02:14:14;;;;;;;0.00;0.00;;;10.50;99.90;;;;;;5074969;28;20047;-78
2022/04/11 02:16:39;;;;;;;0.00;0.00;;;10.40;99.90;;;;;;5062928;28;20078;-77
2022/04/11 02:19:05;;;;;;;0.00;0.00;;;10.40;99.90;;;;;;5054250;28;20116;-74
2022/04/11 02:21:31;;;;;;;0.00;0.00;;;10.30;99.90;;;;;;5055356;28;20109;-74
2022/04/11 02:23:56;;;;;;;0.00;0.00;;;10.30;99.90;;;;;;5054930;28;20400;-75
2022/04/11 02:26:22;;;;;;;0.00;0.00;;;10.40;99.90;;;;;;5055263;28;20036;-76
2022/04/11 02:28:48;;;;;;;0.00;0.00;;;10.40;99.90;;;;;;5054707;28;20388;-74
2022/04/11 02:31:13;;;;;;;0.00;0.00;;;10.50;99.90;;;;;;5055521;28;20383;-74
2022/04/11 02:33:39;;;;;;;0.10;0.10;;;10.40;99.90;;;;;;5054643;28;20032;-74
2022/04/11 02:36:05;;;;;;;0.10;0.10;;;10.50;99.90;;;;;;5055039;28;20480;-79
2022/04/11 02:38:30;;;;;;;0.00;0.00;;;10.50;99.90;;;;;;5070509;28;20028;-74
2022/04/11 02:40:56;;;;;;;0.28;0.28;;;10.60;99.90;;;;;;5074609;28;20023;-74
2022/04/11 02:43:22;;;;;;;0.00;0.00;;;10.60;99.90;;;;;;5074975;28;20070;-74
2022/04/11 02:45:47;;;;;;;0.00;0.00;;;10.60;99.90;;;;;;5074468;28;20167;-74
2022/04/11 02:48:13;;;;;;;0.35;0.25;;;10.70;99.90;;;;;;5074099;28;20033;-73
2022/04/11 02:50:38;;;;;;;0.10;0.10;;;10.70;99.90;;;;;;5074340;28;20020;-74
2022/04/11 02:53:04;;;;;;;0.25;0.20;;;10.70;99.90;;;;;;5073277;28;20024;-77
2022/04/11 02:55:30;;;;;;;0.22;0.22;;;10.70;99.90;;;;;;5074373;28;20024;-73
2022/04/11 02:57:55;;;;;;;0.00;0.00;;;10.70;99.90;;;;;;5056383;28;20040;-74
2022/04/11 03:00:21;;;;;;;0.00;0.00;;;10.70;99.90;;;;;;5075930;28;20074;-74
2022/04/11 03:02:47;;;;;;;0.00;0.00;;;10.70;99.90;;;;;;5074519;28;20044;-74
2022/04/11 03:05:12;;;;;;;0.00;0.00;;;10.70;99.90;;;;;;5074164;28;20491;-74
2022/04/11 03:07:38;;;;;;;0.00;0.00;;;10.60;99.90;;;;;;5074247;28;20039;-78
2022/04/11 03:10:05;;;;;;;0.03;0.03;;;10.70;99.90;;;;;;5073982;28;20023;-73
2022/04/11 03:12:33;;;;;;;0.30;0.20;;;10.70;99.90;;;;;;5074167;28;20399;-77
2022/04/11 03:14:58;;;;;;;0.00;0.00;;;10.70;99.90;;;;;;5074095;28;20050;-77
2022/04/11 03:17:24;;;;;;;0.15;0.08;;;10.80;99.90;;;;;;5055719;28;20028;-78
2022/04/11 03:19:49;;;;;;;0.10;0.10;;;10.80;99.90;;;;;;5053609;28;20502;-74
2022/04/11 03:22:15;;;;;;;0.00;0.00;;;10.80;99.90;;;;;;5037394;28;20074;-74
2022/04/11 03:24:41;;;;;;;0.00;0.00;;;10.90;99.90;;;;;;5053977;28;20048;-74
2022/04/11 03:27:07;;;;;;;0.00;0.00;;;10.90;99.90;;;;;;5053227;28;20033;-74
2022/04/11 03:29:32;;;;;;;0.10;0.10;;;10.80;99.90;;;;;;5054688;28;20024;-74
2022/04/11 03:31:58;;;;;;;0.00;0.00;;;10.80;99.90;;;;;;5054217;28;20098;-73
2022/04/11 03:34:24;;;;;;;0.00;0.00;;;10.80;99.90;;;;;;5053514;28;20017;-77
2022/04/11 03:36:51;;;;;;;0.90;0.85;;;10.80;99.60;;;;;;5055758;28;20029;-73
2022/04/11 03:39:17;;;;;;;0.10;0.00;;;10.90;99.20;;;;;;5073270;28;20040;-74
2022/04/11 03:41:45;;;;;;;0.00;0.00;;;11.00;99.10;;;;;;5073491;28;20028;-78
2022/04/11 03:44:11;;;;;;;0.00;0.00;;;11.00;99.00;;;;;;5073707;28;20036;-74
2022/04/11 03:46:39;;;;;;;0.00;0.00;;;11.00;98.80;;;;;;5073524;28;20043;-77
2022/04/11 03:49:06;;;;;;;0.00;0.00;;;11.10;98.60;;;;;;5073214;28;20429;-79
2022/04/11 03:51:32;;;;;;;0.10;0.10;;;11.10;98.30;;;;;;5073623;28;20111;-74
2022/04/11 03:53:58;;;;;;;0.00;0.00;;;11.10;98.30;;;;;;5073700;28;20055;-73
2022/04/11 03:56:24;;;;;;;0.00;0.00;;;11.10;98.30;;;;;;5073389;28;20451;-78
2022/04/11 03:58:50;;;;;;;0.10;0.10;;;11.10;98.20;;;;;;5073053;28;20039;-74
2022/04/11 04:01:15;;;;;;;0.30;0.30;;;11.10;98.20;;;;;;5072783;28;20032;-77
2022/04/11 04:03:41;;;;;;;0.75;0.75;;;11.10;98.10;;;;;;5072282;28;20028;-74
2022/04/11 04:06:07;;;;;;;0.00;0.00;;;11.20;98.20;;;;;;5073483;28;20017;-78
2022/04/11 04:08:33;;;;;;;0.13;0.13;;;11.10;98.30;;;;;;5073389;28;20099;-74
2022/04/11 04:10:59;;;;;;;0.00;0.00;;;11.00;98.40;;;;;;5073550;28;20021;-77
2022/04/11 04:13:24;;;;;;;0.00;0.00;;;11.00;98.40;;;;;;5073015;28;20028;-73
2022/04/11 04:15:50;;;;;;;0.00;0.00;;;11.10;98.30;;;;;;5068088;28;20025;-79
2022/04/11 04:18:16;;;;;;;0.00;0.00;;;11.10;98.20;;;;;;5052752;28;20614;-74
2022/04/11 04:20:42;;;;;;;0.00;0.00;;;11.10;98.60;;;;;;5053286;28;20071;-74
2022/04/11 04:23:07;;;;;;;0.00;0.00;;;11.00;98.50;;;;;;5053152;28;20499;-72
2022/04/11 04:25:34;;;;;;;0.28;0.28;;;11.00;98.50;;;;;;5053017;28;20112;-74
2022/04/11 04:28:00;;;;;;;0.17;0.08;;;11.00;98.50;;;;;;5052675;28;20411;-73
2022/04/11 04:30:26;;;;;;;1.80;0.50;;;11.00;98.40;;;;;;5035145;28;20036;-73
2022/04/11 04:32:52;;;;;;;0.00;0.00;;;10.90;98.40;;;;;;5052636;28;20033;-74
2022/04/11 04:35:18;;;;;;;0.00;0.00;;;10.90;98.60;;;;;;5052957;28;20036;-72
2022/04/11 04:37:44;;;;;;;0.22;0.22;;;10.90;98.40;;;;;;5061669;28;20033;-74
2022/04/11 04:40:10;;;;;;;0.00;0.00;;;11.00;98.40;;;;;;5073002;28;20083;-74
2022/04/11 04:42:36;;;;;;;0.22;0.22;;;10.90;98.70;;;;;;5073122;28;20454;-73
2022/04/11 04:45:02;;;;;;;0.00;0.00;;;10.90;98.40;;;;;;5072728;28;20131;-74
2022/04/11 04:47:28;;;;;;;0.00;0.00;;;10.90;98.60;;;;;;5072977;28;20029;-74
2022/04/11 04:49:57;;;;;;;0.00;0.00;;;10.90;98.60;;;;;;5072551;28;20391;-78
2022/04/11 04:52:22;;;;;;;0.00;0.00;;;10.90;98.40;;;;;;5072956;28;20450;-74
2022/04/11 04:54:48;;;;;;;0.00;0.00;;;10.90;98.40;;;;;;5073766;28;20048;-77
2022/04/11 04:57:13;;;;;;;0.20;0.20;;;10.90;98.70;;;;;;5070858;28;20035;-77
2022/04/11 04:59:39;;;;;;;0.00;0.00;;;10.80;99.00;;;;;;5071645;28;20087;-78
2022/04/11 05:02:05;;;;;;;0.00;0.00;;;10.80;98.80;;;;;;5072794;28;20020;-79
2022/04/11 05:04:30;;;;;;;0.30;0.25;;;10.90;98.80;;;;;;5072263;28;20036;-74
2022/04/11 05:06:56;;;;;;;0.00;0.00;;;10.80;98.90;;;;;;5072593;28;20031;-74
2022/04/11 05:09:22;;;;;;;3.67;0.22;;;10.80;99.00;;;;;;5071988;28;20060;-78
2022/04/11 05:11:47;;;;;;;0.30;0.30;;;10.70;99.10;;;;;;5071872;28;20047;-73
2022/04/11 05:14:13;;;;;;;0.00;0.00;;;10.70;99.00;;;;;;5057650;28;20028;-78
2022/04/11 05:16:39;;;;;;;0.03;0.03;;;10.80;99.10;;;;;;5064194;28;20048;-73
2022/04/11 05:19:05;;;;;;;0.00;0.00;;;10.80;99.10;;;;;;5072238;28;20032;-79
2022/04/11 05:21:31;;;;;;;0.00;0.00;;;10.70;99.20;;;;;;5075915;28;20483;-79
2022/04/11 05:23:56;;;;;;;0.00;0.00;;;10.70;99.40;;;;;;5076402;28;20025;-79
2022/04/11 05:26:22;;;;;;;0.00;0.00;;;10.70;99.40;;;;;;5076044;28;20542;-79
2022/04/11 05:28:51;;;;;;;0.00;0.00;;;10.70;99.70;;;;;;5075378;28;20029;-77
2022/04/11 05:31:17;;;;;;;0.00;0.00;;;10.60;99.80;;;;;;5059871;28;20491;-79
2022/04/11 05:33:44;;;;;;;0.00;0.00;;;10.70;99.70;;;;;;5073837;28;20021;-78
2022/04/11 05:36:10;;;;;;;0.15;0.15;;;10.70;99.80;;;;;;5075344;28;20074;-79
2022/04/11 05:38:36;;;;;;;0.70;0.70;;;10.60;99.90;;;;;;5074731;28;20032;-74
2022/04/11 05:41:01;;;;;;;0.00;0.00;;;10.60;99.90;;;;;;5075282;28;20024;-78
2022/04/11 05:43:27;;;;;;;0.08;0.08;;;10.60;99.90;;;;;;5080040;28;20127;-73
2022/04/11 05:45:56;;;;;;;0.00;0.00;;;10.60;99.90;;;;;;5072600;28;20079;-79
2022/04/11 05:48:22;;;;;;;2.92;1.95;;;10.60;99.90;;;;;;5073856;28;20028;-75
2022/04/11 05:50:47;;;;;;;0.25;0.25;;;10.60;99.90;;;;;;5074824;28;20484;-71
2022/04/11 05:53:13;;;;;;;0.00;0.00;;;10.60;99.90;;;;;;5074367;28;20020;-71
2022/04/11 05:55:39;;;;;;;0.00;0.00;;;10.60;99.90;;;;;;5074262;28;20389;-72
2022/04/11 05:58:04;;;;;;;0.30;0.30;;;10.60;99.90;;;;;;5073744;28;20064;-72
2022/04/11 06:00:30;;;;;;;0.00;0.00;;;10.60;99.90;;;;;;5081106;28;20536;-75
2022/04/11 06:02:55;;;;;;;0.28;0.28;;;10.60;99.90;;;;;;5075440;28;20039;-72
2022/04/11 06:05:21;;;;;;;0.00;0.00;;;10.60;99.90;;;;;;5074350;28;20079;-75
2022/04/11 06:07:47;;;;;;;0.00;0.00;;;10.70;99.90;;;;;;5074250;28;20025;-75
2022/04/11 06:10:12;;;;;;;0.00;0.00;;;10.70;99.90;;;;;;5073337;28;20395;-71
2022/04/11 06:12:39;;;;;;;0.00;0.00;;;10.70;99.90;;;;;;5072629;28;20052;-72
2022/04/11 06:15:06;;;;;;;0.00;0.00;;;10.70;99.90;;;;;;5072172;28;20368;-71
2022/04/11 06:17:32;;;;;;;0.03;0.03;;;10.70;99.90;;;;;;5069832;28;20028;-71
2022/04/11 06:19:59;;;;;;;0.00;0.00;;;10.70;99.90;;;;;;5070825;28;20024;-71
2022/04/11 06:22:26;;;;;;;0.00;0.00;;;10.80;99.90;;;;;;5068626;28;20052;-72
2022/04/11 06:25:01;;;;;;;0.00;0.00;;;10.80;99.90;;;;;;5065648;28;20082;-71
2022/04/11 06:27:27;;;;;;;0.00;0.00;;;10.80;99.90;;;;;;5059546;28;20380;-72
2022/04/11 06:29:56;;;;;;;0.05;0.05;;;10.90;99.90;;;;;;5070211;28;20024;-71
2022/04/11 06:32:29;;;;;;;0.30;0.10;;;10.90;99.90;;;;;;5071478;28;20035;-75
2022/04/11 06:34:54;;;;;;;0.35;0.35;;;11.00;99.90;;;;;;5070415;28;20036;-72
2022/04/11 06:37:21;;;;;;;0.00;0.00;;;10.90;99.90;;;;;;5072991;28;20066;-75
2022/04/11 06:39:47;;;;;;;0.17;0.10;;;11.00;99.90;;;;;;5070106;28;20147;-72
2022/04/11 06:42:13;;;;;;;0.30;0.17;;;11.10;99.90;;;;;;5071231;28;20020;-71
2022/04/11 06:44:39;;;;;;;0.90;0.85;;;11.10;99.90;;;;;;5071387;28;20060;-71
2022/04/11 06:47:05;;;;;;;0.25;0.22;;;11.10;99.90;;;;;;5071054;28;21030;-74
2022/04/11 06:49:31;;;;;;;0.08;0.08;;;11.10;99.90;;;;;;5070178;28;20028;-71
2022/04/11 06:51:56;;;;;;;0.00;0.00;;;11.20;99.90;;;;;;5069369;28;20487;-74
2022/04/11 06:54:22;;;;;;;0.00;0.00;;;11.20;99.90;;;;;;5070823;28;20044;-75
2022/04/11 06:56:48;;;;;;;0.00;0.00;;;11.20;99.90;;;;;;5070765;28;20029;-74
2022/04/11 06:59:15;;;;;;;0.00;0.00;;;11.30;99.90;;;;;;5076487;28;20031;-74
2022/04/11 07:01:41;;;;;;;0.00;0.00;;;11.40;99.90;;;;;;5070948;28;20052;-71
2022/04/11 07:04:07;;;;;;;0.00;0.00;;;11.40;99.90;;;;;;5071449;28;20074;-74
2022/04/11 07:06:32;;;;;;;0.05;0.05;;;11.50;99.90;;;;;;5054791;28;20473;-72
2022/04/11 07:08:58;;;;;;;0.00;0.00;;;11.60;99.90;;;;;;5072407;28;20020;-74
2022/04/11 07:11:24;;;;;;;0.00;0.00;;;11.80;99.90;;;;;;5067550;28;20537;-74
2022/04/11 07:13:49;;;;;;;0.10;0.10;;;11.70;99.90;;;;;;5066271;28;20029;-71
2022/04/11 07:16:15;;;;;;;0.00;0.00;;;11.80;99.90;;;;;;5065522;28;20108;-74
2022/04/11 07:18:41;;;;;;;2.17;0.80;;;11.90;99.90;;;;;;5069692;28;20096;-74
2022/04/11 07:21:06;;;;;;;0.00;0.00;;;12.00;99.90;;;;;;5075519;28;20469;-76
2022/04/11 07:23:32;;;;;;;0.00;0.00;;;12.10;99.90;;;;;;5074184;28;20091;-74
2022/04/11 07:25:58;;;;;;;0.10;0.10;;;12.10;99.90;;;;;;5070512;28;20063;-73
2022/04/11 07:28:23;;;;;;;0.00;0.00;;;12.20;99.90;;;;;;5072502;28;20727;-70
2022/04/11 07:30:49;;;;;;;0.00;0.00;;;12.30;99.90;;;;;;5072924;28;20438;-71
2022/04/11 07:33:15;;;;;;;0.00;0.00;;;12.30;99.90;;;;;;5067667;28;20047;-74
2022/04/11 07:35:40;;;;;;;0.00;0.00;;;12.40;99.90;;;;;;5070718;28;20502;-71
2022/04/11 07:38:06;;;;;;;0.22;0.20;;;12.40;99.90;;;;;;5068835;28;20025;-70
2022/04/11 07:40:31;;;;;;;0.00;0.00;;;12.50;99.90;;;;;;5051835;28;20112;-70
2022/04/11 07:42:57;;;;;;;1.65;0.98;;;12.80;99.90;;;;;;5068133;28;20052;-71
2022/04/11 07:45:23;;;;;;;4.57;0.35;;;12.90;99.90;;;;;;5081945;28;20051;-73
2022/04/11 07:47:49;;;;;;;0.00;0.00;;;13.00;99.90;;;;;;5089170;28;20143;-70
2022/04/11 07:50:15;;;;;;;0.00;0.00;;;12.90;99.90;;;;;;5090417;28;20024;-72
2022/04/11 07:52:42;;;;;;;0.00;0.00;;;13.20;99.90;;;;;;5090222;28;20028;-70
2022/04/11 07:55:10;;;;;;;0.00;0.00;;;13.40;99.90;;;;;;5097185;28;20051;-70
2022/04/11 07:57:36;;;;;;;0.03;0.03;;;13.60;99.90;;;;;;5093397;28;20039;-71
2022/04/11 08:00:02;;;;;;;0.10;0.10;;;14.60;99.90;;;;;;5093754;28;20453;-70
2022/04/11 08:02:28;;;;;;;2.17;0.35;;;16.20;99.90;;;;;;5088740;28;20083;-73
2022/04/11 08:04:54;;;;;;;0.00;0.00;;;17.30;99.00;;;;;;5089201;28;20055;-71
2022/04/11 08:07:21;;;;;;;0.10;0.10;;;18.70;97.40;;;;;;5088872;28;20031;-71
2022/04/11 08:09:48;;;;;;;0.08;0.08;;;18.50;96.60;;;;;;5089324;28;20031;-71
2022/04/11 08:12:16;;;;;;;0.15;0.15;;;18.20;96.90;;;;;;5089388;28;20020;-72
2022/04/11 08:14:42;;;;;;;0.68;0.50;;;17.90;97.90;;;;;;5091709;28;20016;-71
2022/04/11 08:17:08;;;;;;;1.80;0.45;;;18.50;97.00;;;;;;5095029;28;20032;-74
2022/04/11 08:19:33;;;;;;;0.70;0.10;;;19.00;96.50;;;;;;5087596;28;20872;-71
2022/04/11 08:21:59;;;;;;;0.50;0.43;;;19.70;95.90;;;;;;5088441;28;20039;-71
2022/04/11 08:24:25;;;;;;;0.20;0.20;;;19.90;95.60;;;;;;5091200;28;20794;-74
2022/04/11 08:26:50;;;;;;;1.55;0.13;;;20.70;94.90;;;;;;5085860;28;20223;-75
2022/04/11 08:29:17;;;;;;;1.35;0.65;;;20.10;94.90;;;;;;5087455;28;20024;-74
2022/04/11 08:31:43;;;;;;;0.10;0.10;;;19.90;95.40;;;;;;5086510;28;20059;-72
2022/04/11 08:34:09;;;;;;;0.70;0.70;;;20.20;95.30;;;;;;5090025;28;20387;-71
2022/04/11 08:36:35;;;;;;;1.30;0.30;;;20.50;94.70;;;;;;5089079;28;20047;-73
2022/04/11 08:39:01;;;;;;;0.40;0.40;;;20.60;94.40;;;;;;5089736;28;20081;-74
2022/04/11 08:41:33;;;;;;;0.10;0.10;;;20.50;94.50;;;;;;5089166;28;20046;-75
2022/04/11 08:44:01;;;;;;;0.20;0.20;;;21.00;94.40;;;;;;5088209;28;20394;-72
2022/04/11 08:46:29;;;;;;;0.10;0.10;;;20.80;94.20;;;;;;5072295;28;20498;-72
2022/04/11 08:48:55;;;;;;;0.57;0.50;;;21.30;94.70;;;;;;5070757;28;20028;-73
2022/04/11 08:51:21;;;;;;;0.25;0.15;;;21.50;93.90;;;;;;5072748;28;20028;-72
2022/04/11 08:53:47;;;;;;;0.25;0.25;;;21.40;93.90;;;;;;5072838;28;20020;-72
2022/04/11 08:56:13;;;;;;;6.32;0.35;;;22.10;94.00;;;;;;5072484;28;20028;-75
2022/04/11 08:58:39;;;;;;;0.10;0.10;;;21.00;94.60;;;;;;5072527;28;20364;-73
2022/04/11 09:01:04;;;;;;;0.28;0.28;;;21.50;93.90;;;;;;5072805;28;20079;-73
2022/04/11 09:03:30;;;;;;;1.55;0.90;;;21.30;94.70;;;;;;5054427;28;20037;-73
2022/04/11 09:06:07;;;;;;;3.72;0.17;;;22.30;93.50;;;;;;5079769;28;20032;-73
2022/04/11 09:08:53;;;;;;;0.20;0.20;;;22.20;93.80;;;;;;5073999;28;20028;-75
2022/04/11 09:11:37;;;;;;;4.38;0.50;;;22.40;93.20;;;;;;5077572;28;20526;-73
2022/04/11 09:14:08;;;;;;;2.00;1.33;;;22.40;93.60;;;;;;5080409;28;20791;-72
2022/04/11 09:16:49;;;;;;;0.85;0.73;;;22.10;93.50;;;;;;5072427;28;20031;-73
2022/04/11 09:19:25;;;;;;;0.75;0.52;;;22.10;94.10;;;;;;5071019;28;20557;-73
2022/04/11 09:21:54;;;;;;;0.47;0.20;;;22.50;93.30;;;;;;5072277;28;20495;-73
2022/04/11 09:24:21;;;;;;;0.63;0.40;;;22.90;93.10;;;;;;5073111;28;20479;-74
2022/04/11 09:26:48;;;;;;;2.90;0.20;;;23.10;92.70;;;;;;5072242;28;20040;-73
2022/04/11 09:29:15;;;;;;;0.20;0.15;;;23.50;92.90;;;;;;5072600;28;20036;-73
2022/04/11 09:31:41;;;;;;;6.75;0.43;;;23.70;92.50;;;;;;5072243;28;20029;-73
2022/04/11 09:34:21;;;;;;;1.25;0.43;;;22.50;92.80;;;;;;5072129;28;20021;-73
2022/04/11 09:36:48;;;;;;;4.20;0.30;;;23.40;92.90;;;;;;5071595;28;20028;-73
2022/04/11 09:39:15;;;;;;;1.25;0.20;;;23.60;92.30;;;;;;5072200;28;20017;-73
2022/04/11 09:41:45;;;;;;;3.20;0.40;;;24.10;92.20;;;;;;5074596;28;20033;-73
2022/04/11 09:44:24;;;;;;;0.28;0.25;;;25.10;91.40;;;;;;5088573;28;20051;-74
2022/04/11 09:46:51;;;;;;;1.17;0.30;;;23.80;91.90;;;;;;5100152;28;20060;-74
2022/04/11 09:49:18;;;;;;;0.52;0.28;;;23.20;92.60;;;;;;5107676;28;20103;-73
2022/04/11 09:52:11;;;;;;;3.30;0.30;;;23.00;92.90;;;;;;5103482;28;20005;-73
2022/04/11 09:54:44;;;;;;;1.20;0.47;;;24.00;92.80;;;;;;5101382;28;20051;-72
2022/04/11 09:57:12;;;;;;;0.10;0.10;;;23.80;91.90;;;;;;5093064;28;20027;-71
2022/04/11 09:59:39;;;;;;;1.17;0.90;;;22.20;93.10;;;;;;5091009;28;20035;-74
2022/04/11 10:02:06;;;;;;;0.77;0.50;;;22.30;93.40;;;;;;5113034;28;20027;-74
2022/04/11 10:04:33;;;;;;;0.17;0.17;;;21.80;94.40;;;;;;5096128;28;20459;-72
2022/04/11 10:06:59;;;;;;;0.35;0.32;;;21.60;94.20;;;;;;5097871;28;20026;-73
2022/04/11 10:09:25;;;;;;;5.30;0.68;;;21.90;94.60;;;;;;5097926;28;20023;-75
2022/04/11 10:11:52;;;;;;;0.20;0.20;;;23.10;94.10;;;;;;5102473;28;20027;-73
2022/04/11 10:14:27;;;;;;;0.22;0.22;;;23.20;93.00;;;;;;5092457;28;20035;-73
2022/04/11 10:17:00;;;;;;;0.52;0.40;;;23.40;93.10;;;;;;5085757;28;20079;-73
2022/04/11 10:19:31;;;;;;;0.52;0.20;;;23.10;93.10;;;;;;5087262;28;20448;-72
2022/04/11 10:22:14;;;;;;;0.90;0.30;;;22.70;93.30;;;;;;5075093;28;20051;-74
2022/04/11 10:25:02;;;;;;;0.30;0.30;;;23.40;93.60;;;;;;5096680;28;20034;-72
2022/04/11 10:27:29;;;;;;;1.55;0.20;;;23.40;93.60;;;;;;5099851;28;20510;-74
2022/04/11 10:29:56;;;;;;;1.40;0.30;;;23.40;92.80;;;;;;5083441;28;20015;-71
2022/04/11 10:32:29;;;;;;;0.57;0.57;;;23.10;93.40;;;;;;5081448;28;20107;-73
2022/04/11 10:34:56;;;;;;;0.93;0.63;;;23.00;94.00;;;;;;5094820;28;20059;-71
2022/04/11 10:37:25;;;;;;;0.13;0.13;;;23.30;93.50;;;;;;5092117;28;20070;-72
2022/04/11 10:39:52;;;;;;;2.83;0.93;;;23.00;93.90;;;;;;5091708;28;20031;-73
2022/04/11 10:42:17;;;;;;;0.98;0.30;;;22.70;94.90;;;;;;5066259;28;20024;-72
2022/04/11 10:44:45;;;;;;;0.10;0.10;;;22.60;94.80;;;;;;5080685;28;20566;-72
2022/04/11 10:47:18;;;;;;;1.38;0.40;;;22.30;94.50;;;;;;5085073;28;20811;-75
2022/04/11 10:49:50;;;;;;;0.20;0.13;;;22.40;94.70;;;;;;5093523;28;20024;-71
2022/04/11 10:52:32;;;;;;;2.65;1.48;;;22.50;94.20;;;;;;5077839;28;20174;-74
2022/04/11 10:55:09;;;;;;;0.40;0.40;;;22.10;95.30;;;;;;5089570;28;20885;-71
2022/04/11 10:57:43;;;;;;;0.10;0.10;;;21.40;95.70;;;;;;5080663;28;20075;-74
2022/04/11 11:00:23;;;;;;;0.10;0.10;;;21.80;95.70;;;;;;5076464;28;20531;-71
2022/04/11 11:02:52;;;;;;;0.50;0.43;;;21.60;95.40;;;;;;5081596;28;20558;-72
2022/04/11 11:05:26;;;;;;;1.35;0.28;;;21.30;96.10;;;;;;5076132;28;20077;-74
2022/04/11 11:08:09;;;;;;;1.55;0.50;;;21.40;96.50;;;;;;5088336;28;20092;-72
2022/04/11 11:10:57;;;;;;;0.45;0.30;;;21.40;96.80;;;;;;5077072;28;20054;-72
2022/04/11 11:13:36;;;;;;;0.10;0.10;;;22.40;95.60;;;;;;5078852;28;20829;-71
2022/04/11 11:16:07;;;;;;;0.60;0.50;;;22.40;95.10;;;;;;5052738;28;20116;-72
2022/04/11 11:18:48;;;;;;;1.48;0.95;;;22.20;95.40;;;;;;5092412;28;20026;-72
2022/04/11 11:21:15;;;;;;;0.20;0.20;;;22.00;95.70;;;;;;5087454;28;20070;-72
2022/04/11 11:23:41;;;;;;;1.38;0.10;;;21.90;96.30;;;;;;5083866;28;20028;-74
2022/04/11 11:26:15;;;;;;;0.03;0.03;;;21.90;96.00;;;;;;5102016;28;20040;-72
2022/04/11 11:28:42;;;;;;;1.00;0.85;;;21.90;95.90;;;;;;5096969;28;20035;-72
2022/04/11 11:31:08;;;;;;;1.20;0.77;;;21.70;96.40;;;;;;5094873;28;20023;-75
2022/04/11 11:33:35;;;;;;;0.95;0.75;;;22.20;96.10;;;;;;5092697;28;20031;-73
2022/04/11 11:36:02;;;;;;;0.55;0.40;;;22.60;95.90;;;;;;5090749;28;20028;-72
2022/04/11 11:38:30;;;;;;;0.35;0.35;;;22.60;95.70;;;;;;5089908;28;20520;-71
2022/04/11 11:40:57;;;;;;;1.13;0.85;;;22.30;95.50;;;;;;5102440;28;20077;-71
2022/04/11 11:43:24;;;;;;;0.17;0.17;;;22.70;96.00;;;;;;5090365;28;20032;-74
2022/04/11 11:45:50;;;;;;;0.52;0.20;;;22.90;95.90;;;;;;5090406;28;20052;-74
2022/04/11 11:48:28;;;;;;;0.10;0.10;;;22.70;95.40;;;;;;5076979;28;20122;-71
2022/04/11 11:50:55;;;;;;;0.20;0.17;;;22.40;95.60;;;;;;5071344;28;20103;-71
2022/04/11 11:53:22;;;;;;;0.00;0.00;;;22.10;96.00;;;;;;5079419;28;20051;-74
2022/04/11 11:55:55;;;;;;;0.52;0.52;;;22.40;96.70;;;;;;5070371;28;20759;-72
2022/04/11 11:58:21;;;;;;;1.58;0.82;;;22.70;96.20;;;;;;5080906;28;20039;-74
2022/04/11 12:00:47;;;;;;;0.30;0.30;;;22.80;95.90;;;;;;5078449;28;20032;-72
2022/04/11 12:06:02;;;;;;;0.30;0.22;;;22.80;95.70;;;;;;5078168;28;20035;-71
2022/04/11 12:08:32;;;;;;;0.30;0.30;;;22.60;95.60;;;;;;5085581;28;20050;-71
2022/04/11 12:10:59;;;;;;;6.18;0.20;;;22.30;95.90;;;;;;5088744;28;20031;-74
2022/04/11 12:13:35;;;;;;;0.03;0.03;;;22.40;96.30;;;;;;5083335;28;20024;-73
2022/04/11 12:16:07;;;;;;;2.38;0.25;;;22.70;97.00;;;;;;5071304;28;20037;-71
2022/04/11 12:18:54;;;;;;;0.47;0.38;;;23.00;96.00;;;;;;5068518;28;20061;-71
2022/04/11 12:21:49;;;;;;;8.30;0.47;;;22.40;95.50;;;;;;5056116;28;20061;-71
2022/04/11 12:24:14;;;;;;;2.55;1.00;;;22.60;95.50;;;;;;5054901;28;20033;-71
2022/04/11 12:26:45;;;;;;;8.27;0.30;;;22.70;95.80;;;;;;5050078;28;20021;-71
2022/04/11 12:29:19;;;;;;;0.20;0.20;;;22.60;95.90;;;;;;5058165;28;20035;-73
2022/04/11 12:31:55;;;;;;;1.23;0.13;;;22.60;96.10;;;;;;5081562;28;20017;-71
2022/04/11 12:34:33;;;;;;;0.73;0.10;;;22.50;96.70;;;;;;5068975;28;20039;-71
2022/04/11 12:37:02;;;;;;;0.82;0.32;;;22.60;97.20;;;;;;5069181;28;20028;-70
2022/04/11 12:39:28;;;;;;;0.75;0.35;;;23.00;96.20;;;;;;5079139;28;20025;-71
2022/04/11 12:41:55;;;;;;;0.43;0.43;;;23.20;95.60;;;;;;5074462;28;20113;-73
2022/04/11 12:44:35;;;;;;;7.07;0.40;;;23.20;96.10;;;;;;5079285;28;20033;-71
2022/04/11 12:47:00;;;;;;;2.67;0.28;;;23.30;95.90;;;;;;5092319;28;20050;-73
2022/04/11 12:49:45;;;;;;;0.10;0.10;;;23.40;96.00;;;;;;5103095;28;20028;-71
2022/04/11 12:52:11;;;;;;;0.28;0.10;;;23.80;96.20;;;;;;5091335;28;20039;-71
2022/04/11 12:54:38;;;;;;;0.43;0.40;;;23.80;95.70;;;;;;5089644;28;20453;-71